Time;durP1;ratioP1;P1;durP2;ratioP2;P2;SDS_P1;SDS_P2;PMS_P1;PMS_P2;Temp;Humidity;BMP_temperature;BMP_pressure;BME280_temperature;BME280_humidity;BME280_pressure;Samples;Min_cycle;Max_cycle;Signal;HPM_P1;HPM_P2
2021/06/08 00:02:09;;;;;;;;;;;17.60;86.30;;;;;;5087921;28;20030;-79
2021/06/08 00:04:35;;;;;;;;;;;17.50;85.90;;;;;;5072591;28;19912;-80
2021/06/08 00:07:00;;;;;;;;;;;17.50;85.80;;;;;;5087982;28;19915;-80
2021/06/08 00:09:26;;;;;;;;;;;17.50;85.60;;;;;;5072575;28;19908;-80
2021/06/08 00:11:51;;;;;;;;;;;17.50;85.40;;;;;;5088032;28;20002;-80
2021/06/08 00:14:16;;;;;;;;;;;17.50;85.10;;;;;;5072568;28;19908;-80
2021/06/08 00:16:42;;;;;;;;;;;17.50;84.90;;;;;;5070629;28;19924;-80
2021/06/08 00:19:07;;;;;;;;;;;17.40;84.80;;;;;;5071164;28;19943;-79
2021/06/08 00:21:33;;;;;;;;;;;17.40;84.80;;;;;;5072227;28;19915;-79
2021/06/08 00:23:58;;;;;;;;;;;17.40;84.80;;;;;;5072503;28;19966;-80
2021/06/08 00:26:24;;;;;;;;;;;17.40;84.60;;;;;;5072332;28;20386;-80
2021/06/08 00:28:49;;;;;;;;;;;17.40;84.60;;;;;;5087960;28;20356;-80
2021/06/08 00:31:15;;;;;;;;;;;17.30;84.30;;;;;;5072433;28;19909;-79
2021/06/08 00:33:40;;;;;;;;;;;17.30;84.30;;;;;;5072191;28;20280;-80
2021/06/08 00:36:06;;;;;;;;;;;17.20;84.40;;;;;;5072114;28;20279;-79
2021/06/08 00:38:31;;;;;;;;;;;17.20;84.50;;;;;;5072248;28;20276;-79
2021/06/08 00:40:59;;;;;;;;;;;17.10;84.60;;;;;;5087747;28;19951;-80
2021/06/08 00:43:25;;;;;;;;;;;17.10;84.60;;;;;;5090860;28;19920;-80
2021/06/08 00:45:51;;;;;;;;;;;17.00;84.50;;;;;;5091545;28;20280;-79
2021/06/08 00:48:17;;;;;;;;;;;17.00;84.40;;;;;;5091492;28;19961;-80
2021/06/08 00:50:42;;;;;;;;;;;16.90;84.30;;;;;;5075834;28;20347;-80
2021/06/08 00:53:07;;;;;;;;;;;16.90;84.30;;;;;;5076063;28;20390;-80
2021/06/08 00:55:33;;;;;;;;;;;16.90;84.30;;;;;;5091496;28;19909;-80
2021/06/08 00:57:58;;;;;;;;;;;16.90;84.20;;;;;;5075838;28;19940;-80
2021/06/08 01:00:24;;;;;;;;;;;16.80;84.00;;;;;;5074543;28;19962;-80
2021/06/08 01:02:50;;;;;;;;;;;16.80;83.90;;;;;;5091396;28;20445;-80
2021/06/08 01:05:16;;;;;;;;;;;16.80;83.90;;;;;;5075369;28;19916;-80
2021/06/08 01:07:41;;;;;;;;;;;16.70;84.10;;;;;;5075582;28;19916;-80
2021/06/08 01:10:08;;;;;;;;;;;16.70;84.20;;;;;;5091178;28;19914;-79
2021/06/08 01:12:34;;;;;;;;;;;16.70;84.50;;;;;;5075420;28;19999;-80
2021/06/08 01:14:59;;;;;;;;;;;16.60;84.50;;;;;;5075410;28;19999;-80
2021/06/08 01:17:25;;;;;;;;;;;16.60;84.50;;;;;;5073626;28;19934;-79
2021/06/08 01:19:53;;;;;;;;;;;16.50;84.40;;;;;;5090833;28;19909;-80
2021/06/08 01:22:19;;;;;;;;;;;16.50;84.50;;;;;;5090971;28;19912;-80
2021/06/08 01:24:44;;;;;;;;;;;16.50;84.40;;;;;;5075291;28;19917;-80
2021/06/08 01:27:10;;;;;;;;;;;16.40;84.50;;;;;;5073928;28;20394;-80
2021/06/08 01:29:36;;;;;;;;;;;16.40;84.50;;;;;;5090839;28;19909;-80
2021/06/08 01:32:05;;;;;;;;;;;16.40;84.50;;;;;;5090799;28;19909;-80
2021/06/08 01:34:31;;;;;;;;;;;16.30;84.60;;;;;;5074762;28;19912;-80
2021/06/08 01:36:57;;;;;;;;;;;16.20;84.60;;;;;;5073789;28;20007;-80
2021/06/08 01:39:23;;;;;;;;;;;16.20;84.80;;;;;;5075127;28;19995;-80
2021/06/08 01:41:49;;;;;;;;;;;16.20;84.80;;;;;;5090545;28;19909;-79
2021/06/08 01:44:15;;;;;;;;;;;16.20;84.80;;;;;;5090450;28;19966;-80
2021/06/08 01:46:40;;;;;;;;;;;16.10;84.90;;;;;;5073629;28;19912;-79
2021/06/08 01:49:06;;;;;;;;;;;16.10;85.00;;;;;;5090385;28;19934;-80
2021/06/08 01:51:31;;;;;;;;;;;16.10;85.20;;;;;;5074527;28;19917;-80
2021/06/08 01:54:00;;;;;;;;;;;16.10;85.40;;;;;;5089893;28;19915;-79
2021/06/08 01:56:27;;;;;;;;;;;16.00;85.40;;;;;;5074676;28;19909;-80
2021/06/08 01:58:55;;;;;;;;;;;16.00;85.50;;;;;;5074575;28;19909;-79
2021/06/08 02:01:22;;;;;;;;;;;16.00;85.70;;;;;;5090144;28;20358;-80
2021/06/08 02:03:57;;;;;;;;;;;15.90;85.90;;;;;;5074497;28;20311;-79
2021/06/08 02:06:42;;;;;;;;;;;15.90;85.90;;;;;;5071142;28;19916;-80
2021/06/08 02:09:14;;;;;;;;;;;15.90;86.10;;;;;;5063862;28;19955;-80
2021/06/08 02:11:47;;;;;;;;;;;15.90;86.30;;;;;;5085630;28;20384;-80
2021/06/08 02:14:20;;;;;;;;;;;15.90;86.30;;;;;;5089809;28;19908;-79
2021/06/08 02:16:49;;;;;;;;;;;15.80;86.60;;;;;;5071270;28;19932;-80
2021/06/08 02:19:15;;;;;;;;;;;15.80;87.00;;;;;;5074192;28;20007;-80
2021/06/08 02:21:42;;;;;;;;;;;15.80;87.30;;;;;;5089640;28;19915;-79
2021/06/08 02:24:09;;;;;;;;;;;15.70;87.50;;;;;;5074206;28;19951;-79
2021/06/08 02:26:36;;;;;;;;;;;15.70;87.70;;;;;;5089588;28;19951;-79
2021/06/08 02:29:02;;;;;;;;;;;15.70;88.00;;;;;;5074261;28;20440;-80
2021/06/08 02:31:28;;;;;;;;;;;15.60;88.20;;;;;;5089591;28;19909;-79
2021/06/08 02:33:55;;;;;;;;;;;15.60;88.40;;;;;;5073859;28;19916;-79
2021/06/08 02:36:21;;;;;;;;;;;15.60;88.40;;;;;;5072454;28;19953;-80
2021/06/08 02:38:48;;;;;;;;;;;15.60;88.50;;;;;;5073779;28;19909;-79
2021/06/08 02:41:14;;;;;;;;;;;15.50;88.50;;;;;;5072429;28;19915;-80
2021/06/08 02:43:40;;;;;;;;;;;15.50;88.80;;;;;;5089250;28;20330;-80
2021/06/08 02:46:07;;;;;;;;;;;15.40;89.00;;;;;;5073641;28;19954;-79
2021/06/08 02:48:34;;;;;;;;;;;15.40;89.20;;;;;;5089296;28;20323;-79
2021/06/08 02:51:00;;;;;;;;;;;15.30;89.30;;;;;;5089181;28;19908;-79
2021/06/08 02:53:27;;;;;;;;;;;15.30;89.30;;;;;;5089198;28;19991;-80
2021/06/08 02:55:53;;;;;;;;;;;15.20;89.40;;;;;;5089027;28;19912;-80
2021/06/08 02:58:20;;;;;;;;;;;15.20;89.60;;;;;;5089128;28;19916;-79
2021/06/08 03:00:46;;;;;;;;;;;15.20;89.80;;;;;;5089158;28;19908;-79
2021/06/08 03:03:14;;;;;;;;;;;15.20;89.90;;;;;;5088842;28;19916;-79
2021/06/08 03:05:51;;;;;;;;;;;15.10;90.00;;;;;;5088209;28;19909;-79
2021/06/08 03:08:36;;;;;;;;;;;15.10;90.10;;;;;;5060965;28;19999;-80
2021/06/08 03:11:06;;;;;;;;;;;15.10;90.20;;;;;;5078076;28;19908;-79
2021/06/08 03:13:33;;;;;;;;;;;15.10;90.30;;;;;;5088757;28;19908;-80
2021/06/08 03:16:00;;;;;;;;;;;15.10;90.40;;;;;;5087577;28;19956;-79
2021/06/08 03:18:27;;;;;;;;;;;15.00;90.60;;;;;;5071683;28;19999;-80
2021/06/08 03:20:58;;;;;;;;;;;15.00;90.60;;;;;;5088753;28;19915;-80
2021/06/08 03:23:25;;;;;;;;;;;15.00;90.70;;;;;;5088529;28;19920;-79
2021/06/08 03:25:51;;;;;;;;;;;15.00;90.80;;;;;;5088832;28;20265;-79
2021/06/08 03:28:17;;;;;;;;;;;14.90;90.90;;;;;;5060930;28;19916;-79
2021/06/08 03:30:43;;;;;;;;;;;14.90;91.10;;;;;;5072986;28;19913;-79
2021/06/08 03:33:09;;;;;;;;;;;14.90;91.10;;;;;;5088466;28;19916;-79
2021/06/08 03:35:34;;;;;;;;;;;14.90;91.20;;;;;;5088376;28;19912;-79
2021/06/08 03:38:00;;;;;;;;;;;14.90;91.40;;;;;;5088335;28;19913;-79
2021/06/08 03:40:26;;;;;;;;;;;14.80;91.40;;;;;;5088529;28;19912;-79
2021/06/08 03:42:51;;;;;;;;;;;14.80;91.40;;;;;;5072788;28;19917;-79
2021/06/08 03:45:17;;;;;;;;;;;14.80;91.50;;;;;;5072845;28;19923;-79
2021/06/08 03:47:44;;;;;;;;;;;14.80;91.40;;;;;;5072642;28;19918;-79
2021/06/08 03:50:11;;;;;;;;;;;14.90;91.50;;;;;;5072788;28;19915;-79
2021/06/08 03:52:37;;;;;;;;;;;14.80;91.60;;;;;;5085394;28;20330;-80
2021/06/08 03:55:04;;;;;;;;;;;14.90;91.70;;;;;;5072748;28;19962;-80
2021/06/08 03:57:32;;;;;;;;;;;14.90;91.70;;;;;;5071339;28;19908;-80
2021/06/08 03:59:58;;;;;;;;;;;14.90;91.70;;;;;;5070176;28;19999;-80
2021/06/08 04:02:23;;;;;;;;;;;14.90;91.80;;;;;;5075365;28;20334;-79
2021/06/08 04:04:49;;;;;;;;;;;14.90;91.90;;;;;;5058691;28;19913;-79
2021/06/08 04:07:17;;;;;;;;;;;14.90;92.10;;;;;;5063051;28;19936;-79
2021/06/08 04:09:45;;;;;;;;;;;14.90;92.10;;;;;;5058968;28;19913;-79
2021/06/08 04:12:11;;;;;;;;;;;14.90;92.20;;;;;;5069242;28;19909;-80
2021/06/08 04:14:36;;;;;;;;;;;15.00;92.20;;;;;;5082392;28;19975;-79
2021/06/08 04:17:04;;;;;;;;;;;14.90;92.20;;;;;;5058818;28;19921;-79
2021/06/08 04:19:29;;;;;;;;;;;14.90;92.20;;;;;;5059645;28;19955;-79
2021/06/08 04:21:55;;;;;;;;;;;14.90;92.40;;;;;;5059518;28;19959;-79
2021/06/08 04:24:20;;;;;;;;;;;14.90;92.40;;;;;;5062804;28;19912;-80
2021/06/08 04:26:46;;;;;;;;;;;15.00;92.60;;;;;;5072520;28;20013;-79
2021/06/08 04:29:11;;;;;;;;;;;15.10;92.90;;;;;;5068183;28;20046;-80
2021/06/08 04:31:37;;;;;;;;;;;15.10;93.10;;;;;;5060247;28;19916;-79
2021/06/08 04:34:02;;;;;;;;;;;15.10;93.40;;;;;;5067193;28;19915;-79
2021/06/08 04:36:28;;;;;;;;;;;15.10;93.60;;;;;;5068494;28;19909;-79
2021/06/08 04:38:54;;;;;;;;;;;15.10;93.80;;;;;;5071028;28;19915;-79
2021/06/08 04:41:20;;;;;;;;;;;15.10;93.80;;;;;;5067041;28;20279;-79
2021/06/08 04:43:45;;;;;;;;;;;15.20;93.90;;;;;;5076548;28;20431;-79
2021/06/08 04:46:12;;;;;;;;;;;15.20;94.00;;;;;;5074975;28;19915;-79
2021/06/08 04:48:38;;;;;;;;;;;15.20;94.20;;;;;;5092220;28;19908;-80
2021/06/08 04:51:03;;;;;;;;;;;15.20;94.20;;;;;;5076288;28;20260;-80
2021/06/08 04:53:29;;;;;;;;;;;15.30;94.40;;;;;;5092021;28;19908;-79
2021/06/08 04:55:54;;;;;;;;;;;15.30;94.70;;;;;;5092161;28;19912;-79
2021/06/08 04:58:21;;;;;;;;;;;15.30;95.00;;;;;;5076470;28;19909;-80
2021/06/08 05:00:59;;;;;;;;;;;15.30;95.00;;;;;;5091940;28;19915;-79
2021/06/08 05:03:27;;;;;;;;;;;15.30;94.90;;;;;;5076208;28;19913;-79
2021/06/08 05:05:53;;;;;;;;;;;15.40;95.00;;;;;;5091928;28;19916;-80
2021/06/08 05:08:37;;;;;;;;;;;15.40;95.10;;;;;;5076288;28;19916;-79
2021/06/08 05:11:21;;;;;;;;;;;15.50;95.20;;;;;;5075971;28;19916;-80
2021/06/08 05:13:51;;;;;;;;;;;15.40;95.30;;;;;;5091699;28;19912;-80
2021/06/08 05:16:17;;;;;;;;;;;15.50;95.50;;;;;;5075893;28;19969;-79
2021/06/08 05:18:43;;;;;;;;;;;15.50;95.50;;;;;;5074766;28;19912;-79
2021/06/08 05:21:10;;;;;;;;;;;15.50;95.40;;;;;;5076115;28;19991;-80
2021/06/08 05:23:35;;;;;;;;;;;15.60;95.50;;;;;;5091334;28;20376;-80
2021/06/08 05:26:01;;;;;;;;;;;15.60;95.50;;;;;;5073855;28;19966;-79
2021/06/08 05:28:27;;;;;;;;;;;15.70;95.70;;;;;;5089629;28;19999;-80
2021/06/08 05:30:53;;;;;;;;;;;15.70;95.60;;;;;;5090267;28;20015;-80
2021/06/08 05:33:22;;;;;;;;;;;15.70;95.90;;;;;;5071749;28;20359;-79
2021/06/08 05:35:50;;;;;;;;;;;15.80;95.90;;;;;;5075115;28;19909;-80
2021/06/08 05:38:16;;;;;;;;;;;15.80;95.80;;;;;;5091310;28;19931;-79
2021/06/08 05:40:44;;;;;;;;;;;15.80;95.70;;;;;;5074504;28;20353;-80
2021/06/08 05:43:09;;;;;;;;;;;15.90;95.60;;;;;;5069288;28;19966;-79
2021/06/08 05:45:35;;;;;;;;;;;15.90;95.50;;;;;;5089988;28;20013;-80
2021/06/08 05:48:00;;;;;;;;;;;15.90;95.50;;;;;;5076401;28;19912;-79
2021/06/08 05:50:26;;;;;;;;;;;16.00;95.40;;;;;;5072885;28;19915;-80
2021/06/08 05:52:54;;;;;;;;;;;16.00;95.40;;;;;;5058556;28;20371;-79
2021/06/08 05:55:25;;;;;;;;;;;16.00;95.30;;;;;;5071985;28;19936;-80
2021/06/08 05:57:54;;;;;;;;;;;16.10;95.20;;;;;;5073088;28;19935;-79
2021/06/08 06:00:20;;;;;;;;;;;16.10;95.00;;;;;;5073266;28;19993;-80
2021/06/08 06:02:46;;;;;;;;;;;16.10;95.10;;;;;;5057132;28;19908;-80
2021/06/08 06:05:12;;;;;;;;;;;16.10;95.00;;;;;;5054245;28;19913;-80
2021/06/08 06:07:38;;;;;;;;;;;16.20;95.10;;;;;;5058165;28;19913;-80
2021/06/08 06:10:05;;;;;;;;;;;16.20;95.10;;;;;;5070052;28;19916;-80
2021/06/08 06:12:31;;;;;;;;;;;16.20;95.20;;;;;;5056010;28;20003;-79
2021/06/08 06:15:03;;;;;;;;;;;16.30;95.10;;;;;;5070918;28;19909;-80
2021/06/08 06:17:31;;;;;;;;;;;16.30;95.00;;;;;;5072532;28;20482;-80
2021/06/08 06:19:57;;;;;;;;;;;16.30;95.00;;;;;;5072464;28;20006;-80
2021/06/08 06:22:22;;;;;;;;;;;16.40;94.90;;;;;;5065957;28;20611;-80
2021/06/08 06:24:48;;;;;;;;;;;16.40;94.70;;;;;;5072051;28;20276;-79
2021/06/08 06:27:13;;;;;;;;;;;16.50;94.20;;;;;;5062430;28;20372;-80
2021/06/08 06:29:39;;;;;;;;;;;16.50;94.00;;;;;;5072449;28;19909;-79
2021/06/08 06:32:05;;;;;;;;;;;16.50;93.90;;;;;;5054422;28;19974;-80
2021/06/08 06:34:31;;;;;;;;;;;16.50;93.80;;;;;;5070011;28;20404;-80
2021/06/08 06:36:58;;;;;;;;;;;16.60;93.70;;;;;;5073157;28;19916;-80
2021/06/08 06:39:25;;;;;;;;;;;16.60;92.90;;;;;;5071755;28;19923;-80
2021/06/08 06:41:52;;;;;;;;;;;16.70;93.00;;;;;;5071154;28;19919;-80
2021/06/08 06:44:19;;;;;;;;;;;16.70;92.20;;;;;;5062679;28;20376;-80
2021/06/08 06:46:45;;;;;;;;;;;16.80;92.00;;;;;;5089223;28;20054;-79
2021/06/08 06:49:11;;;;;;;;;;;16.80;92.00;;;;;;5068882;28;20383;-80
2021/06/08 06:51:36;;;;;;;;;;;16.80;91.90;;;;;;5073131;28;19985;-80
2021/06/08 06:54:03;;;;;;;;;;;16.90;91.40;;;;;;5073727;28;19913;-81
2021/06/08 06:56:28;;;;;;;;;;;17.00;91.00;;;;;;5080851;28;20383;-79
2021/06/08 06:58:56;;;;;;;;;;;17.00;90.50;;;;;;5060936;28;19909;-80
2021/06/08 07:01:22;;;;;;;;;;;17.10;90.00;;;;;;5054137;28;19908;-80
2021/06/08 07:03:50;;;;;;;;;;;17.10;89.90;;;;;;5054838;28;19929;-80
2021/06/08 07:06:17;;;;;;;;;;;17.10;89.80;;;;;;5068522;28;19919;-80
2021/06/08 07:08:42;;;;;;;;;;;17.20;89.00;;;;;;5053764;28;20539;-80
2021/06/08 07:11:08;;;;;;;;;;;17.30;85.90;;;;;;5059077;28;19923;-80
2021/06/08 07:13:34;;;;;;;;;;;17.30;85.80;;;;;;5051628;28;19958;-80
2021/06/08 07:15:59;;;;;;;;;;;17.40;86.30;;;;;;5067929;28;19927;-80
2021/06/08 07:18:25;;;;;;;;;;;17.40;86.60;;;;;;5078050;28;19912;-80
2021/06/08 07:20:51;;;;;;;;;;;17.50;86.90;;;;;;5079793;28;20246;-80
2021/06/08 07:23:20;;;;;;;;;;;17.60;85.40;;;;;;5063002;28;20342;-81
2021/06/08 07:25:45;;;;;;;;;;;17.60;85.30;;;;;;5069591;28;20276;-81
2021/06/08 07:28:11;;;;;;;;;;;17.70;83.90;;;;;;5068937;28;19954;-81
2021/06/08 07:30:38;;;;;;;;;;;17.80;84.10;;;;;;5052102;28;19932;-82
2021/06/08 07:33:12;;;;;;;;;;;17.90;84.60;;;;;;5053548;28;19909;-81
2021/06/08 07:35:44;;;;;;;;;;;17.90;84.90;;;;;;5068803;28;20328;-81
2021/06/08 07:38:15;;;;;;;;;;;18.00;85.40;;;;;;5055066;28;20257;-81
2021/06/08 07:40:42;;;;;;;;;;;18.10;85.30;;;;;;5053373;28;19908;-81
2021/06/08 07:43:09;;;;;;;;;;;18.20;85.50;;;;;;5051915;28;19909;-81
2021/06/08 07:45:45;;;;;;;;;;;18.30;86.00;;;;;;5053133;28;19913;-81
2021/06/08 07:48:16;;;;;;;;;;;18.40;86.10;;;;;;5052164;28;19909;-81
2021/06/08 07:50:43;;;;;;;;;;;18.40;86.20;;;;;;5051503;28;19908;-81
2021/06/08 07:53:10;;;;;;;;;;;18.50;86.20;;;;;;5053350;28;19909;-81
2021/06/08 07:55:35;;;;;;;;;;;18.60;85.30;;;;;;5052839;28;19920;-81
2021/06/08 07:58:03;;;;;;;;;;;18.70;85.30;;;;;;5073192;28;19942;-81
2021/06/08 08:00:28;;;;;;;;;;;18.70;85.00;;;;;;5073368;28;19908;-80
2021/06/08 08:02:55;;;;;;;;;;;18.80;84.80;;;;;;5075485;28;19920;-79
2021/06/08 08:05:22;;;;;;;;;;;18.90;84.70;;;;;;5077349;28;19962;-79
2021/06/08 08:07:48;;;;;;;;;;;19.00;85.50;;;;;;5078355;28;20003;-79
2021/06/08 08:10:14;;;;;;;;;;;19.10;85.80;;;;;;5079473;28;19923;-78
2021/06/08 08:12:41;;;;;;;;;;;19.20;85.70;;;;;;5077122;28;20246;-80
2021/06/08 08:15:08;;;;;;;;;;;19.30;85.40;;;;;;5077836;28;19973;-79
2021/06/08 08:17:34;;;;;;;;;;;19.40;84.80;;;;;;5064464;28;19916;-79
2021/06/08 08:19:59;;;;;;;;;;;19.40;84.70;;;;;;5060427;28;19916;-79
2021/06/08 08:22:25;;;;;;;;;;;19.50;85.00;;;;;;5080729;28;20296;-80
2021/06/08 08:24:50;;;;;;;;;;;19.60;84.00;;;;;;5071599;28;19957;-80
2021/06/08 08:27:16;;;;;;;;;;;19.80;83.20;;;;;;5071583;28;19912;-80
2021/06/08 08:29:42;;;;;;;;;;;19.90;83.30;;;;;;5071592;28;19994;-79
2021/06/08 08:32:08;;;;;;;;;;;19.90;83.60;;;;;;5073004;28;19908;-80
2021/06/08 08:34:33;;;;;;;;;;;20.10;83.50;;;;;;5071609;28;19916;-80
2021/06/08 08:37:00;;;;;;;;;;;20.20;83.40;;;;;;5071539;28;20004;-80
2021/06/08 08:39:26;;;;;;;;;;;20.30;83.60;;;;;;5071549;28;19913;-80
2021/06/08 08:41:53;;;;;;;;;;;20.30;82.60;;;;;;5088876;28;19917;-80
2021/06/08 08:44:19;;;;;;;;;;;20.40;82.30;;;;;;5092866;28;19912;-80
2021/06/08 08:46:45;;;;;;;;;;;20.50;82.20;;;;;;5092690;28;19912;-80
2021/06/08 08:49:10;;;;;;;;;;;20.60;82.30;;;;;;5091794;28;19909;-80
2021/06/08 08:51:38;;;;;;;;;;;20.60;81.90;;;;;;5093261;28;19908;-80
2021/06/08 08:54:04;;;;;;;;;;;20.70;81.10;;;;;;5091587;28;19908;-80
2021/06/08 08:56:35;;;;;;;;;;;20.90;81.60;;;;;;5091381;28;19908;-80
2021/06/08 08:59:08;;;;;;;;;;;21.00;81.80;;;;;;5092830;28;19908;-80
2021/06/08 09:01:34;;;;;;;;;;;21.10;81.00;;;;;;5092842;28;19914;-80
2021/06/08 09:04:00;;;;;;;;;;;21.20;80.90;;;;;;5095170;28;19911;-80
2021/06/08 09:06:25;;;;;;;;;;;21.30;81.10;;;;;;5094962;28;19912;-80
2021/06/08 09:08:51;;;;;;;;;;;21.40;79.90;;;;;;5095183;28;19915;-80
2021/06/08 09:11:18;;;;;;;;;;;21.50;79.80;;;;;;5095209;28;19912;-79
2021/06/08 09:13:44;;;;;;;;;;;21.60;79.90;;;;;;5095146;28;19918;-80
2021/06/08 09:16:09;;;;;;;;;;;21.60;80.00;;;;;;5074303;28;20383;-81
2021/06/08 09:18:35;;;;;;;;;;;21.70;79.70;;;;;;5075889;28;19912;-80
2021/06/08 09:21:18;;;;;;;;;;;21.80;78.80;;;;;;5075950;28;20394;-80
2021/06/08 09:23:43;;;;;;;;;;;21.90;78.70;;;;;;5091250;28;19951;-81
2021/06/08 09:26:09;;;;;;;;;;;22.00;78.80;;;;;;5074995;28;19951;-80
2021/06/08 09:28:36;;;;;;;;;;;22.10;78.00;;;;;;5074918;28;19917;-80
2021/06/08 09:31:21;;;;;;;;;;;22.30;75.40;;;;;;5090428;28;19912;-80
2021/06/08 09:33:48;;;;;;;;;;;22.40;75.30;;;;;;5090727;28;20364;-80
2021/06/08 09:36:15;;;;;;;;;;;22.50;75.00;;;;;;5074962;28;19909;-80
2021/06/08 09:38:45;;;;;;;;;;;22.60;73.40;;;;;;5074748;28;19974;-80
2021/06/08 09:41:12;;;;;;;;;;;22.60;73.80;;;;;;5073519;28;19975;-80
2021/06/08 09:43:56;;;;;;;;;;;22.70;74.10;;;;;;5073394;28;19962;-81
2021/06/08 09:46:22;;;;;;;;;;;22.70;72.30;;;;;;5073076;28;19916;-80
2021/06/08 09:48:51;;;;;;;;;;;22.90;71.10;;;;;;5090079;28;19954;-80
2021/06/08 09:51:17;;;;;;;;;;;23.10;71.40;;;;;;5059447;28;20350;-81
2021/06/08 09:53:43;;;;;;;;;;;23.30;71.50;;;;;;5053456;28;20365;-81
2021/06/08 09:56:10;;;;;;;;;;;23.40;70.30;;;;;;5054042;28;20031;-81
2021/06/08 09:58:42;;;;;;;;;;;23.60;69.20;;;;;;5055021;28;19928;-81
2021/06/08 10:01:08;;;;;;;;;;;23.70;68.10;;;;;;5055115;28;19909;-80
2021/06/08 10:03:37;;;;;;;;;;;23.70;70.20;;;;;;5070571;28;20288;-81
2021/06/08 10:06:03;;;;;;;;;;;23.90;72.90;;;;;;5070542;28;19915;-80
2021/06/08 10:08:29;;;;;;;;;;;25.00;71.60;;;;;;5055286;28;19908;-81
2021/06/08 10:10:58;;;;;;;;;;;27.50;65.60;;;;;;5070513;28;19915;-81
2021/06/08 10:13:24;;;;;;;;;;;30.10;59.20;;;;;;5070157;28;19912;-81
2021/06/08 10:16:08;;;;;;;;;;;32.30;50.50;;;;;;5057989;28;20455;-82
2021/06/08 10:18:50;;;;;;;;;;;33.30;47.40;;;;;;5090380;28;19951;-82
2021/06/08 10:21:35;;;;;;;;;;;34.80;46.20;;;;;;5083503;28;19939;-82
2021/06/08 10:24:02;;;;;;;;;;;36.20;43.50;;;;;;5063502;28;20253;-82
2021/06/08 10:26:33;;;;;;;;;;;37.30;38.50;;;;;;5065939;28;20000;-82
2021/06/08 10:29:01;;;;;;;;;;;38.00;38.70;;;;;;5064498;28;20004;-81
2021/06/08 10:31:27;;;;;;;;;;;38.40;38.80;;;;;;5078815;28;19921;-82
2021/06/08 10:33:52;;;;;;;;;;;38.70;37.20;;;;;;5060231;28;19909;-82
2021/06/08 10:36:19;;;;;;;;;;;39.30;36.90;;;;;;5053550;28;20471;-82
2021/06/08 10:38:45;;;;;;;;;;;39.90;35.10;;;;;;5070032;28;19913;-82
2021/06/08 10:41:10;;;;;;;;;;;40.50;32.80;;;;;;5054849;28;19992;-82
2021/06/08 10:43:36;;;;;;;;;;;40.80;32.70;;;;;;5070144;28;20418;-82
2021/06/08 10:46:02;;;;;;;;;;;41.10;33.30;;;;;;5053383;28;19909;-81
2021/06/08 10:48:33;;;;;;;;;;;41.70;32.40;;;;;;5069379;28;19908;-82
2021/06/08 10:51:12;;;;;;;;;;;42.10;32.40;;;;;;5054303;28;19936;-83
2021/06/08 10:53:39;;;;;;;;;;;42.30;31.00;;;;;;5072439;28;19913;-82
2021/06/08 10:56:31;;;;;;;;;;;42.60;31.20;;;;;;5084014;28;19912;-82
2021/06/08 10:59:00;;;;;;;;;;;42.90;32.30;;;;;;5060697;28;19909;-83
2021/06/08 11:04:02;;;;;;;;;;;44.10;30.80;;;;;;5062720;28;20372;-82
2021/06/08 11:06:37;;;;;;;;;;;44.10;29.20;;;;;;5079121;28;19909;-83
2021/06/08 11:09:04;;;;;;;;;;;43.90;29.30;;;;;;5080749;28;19908;-82
2021/06/08 11:11:49;;;;;;;;;;;43.50;30.10;;;;;;5079093;28;19991;-83
2021/06/08 11:14:33;;;;;;;;;;;42.50;30.30;;;;;;5064153;28;19909;-82
2021/06/08 11:16:59;;;;;;;;;;;42.60;30.90;;;;;;5082112;28;19921;-83
2021/06/08 11:19:40;;;;;;;;;;;43.70;30.30;;;;;;5062627;28;19952;-82
2021/06/08 11:22:06;;;;;;;;;;;44.50;30.00;;;;;;5077135;28;19913;-83
2021/06/08 11:24:35;;;;;;;;;;;44.90;29.20;;;;;;5078820;28;19913;-82
2021/06/08 11:27:00;;;;;;;;;;;45.10;29.40;;;;;;5061484;28;19951;-82
2021/06/08 11:29:45;;;;;;;;;;;44.50;29.70;;;;;;5062337;28;19944;-82
2021/06/08 11:32:29;;;;;;;;;;;44.40;29.70;;;;;;5064651;28;19908;-82
2021/06/08 11:35:06;;;;;;;;;;;44.40;30.00;;;;;;5063828;28;20004;-80
2021/06/08 11:37:48;;;;;;;;;;;44.00;30.10;;;;;;5066043;28;20041;-81
2021/06/08 11:40:32;;;;;;;;;;;43.50;30.00;;;;;;5073583;28;19908;-80
2021/06/08 11:42:57;;;;;;;;;;;42.60;30.70;;;;;;5068804;28;19920;-79
2021/06/08 11:45:33;;;;;;;;;;;42.50;31.30;;;;;;5072096;28;19913;-79
2021/06/08 11:47:59;;;;;;;;;;;42.80;31.90;;;;;;5087972;28;23101;-80
2021/06/08 11:50:42;;;;;;;;;;;42.60;31.00;;;;;;5072060;28;19919;-80
2021/06/08 11:53:14;;;;;;;;;;;42.60;30.60;;;;;;5073341;28;19913;-81
2021/06/08 11:55:40;;;;;;;;;;;41.40;30.60;;;;;;5082039;28;19913;-81
2021/06/08 11:58:26;;;;;;;;;;;40.30;31.70;;;;;;5077912;28;19982;-81
2021/06/08 12:00:52;;;;;;;;;;;40.10;32.50;;;;;;5078593;28;19909;-81
2021/06/08 12:03:25;;;;;;;;;;;40.50;32.70;;;;;;5061708;28;20008;-81
2021/06/08 12:05:50;;;;;;;;;;;41.00;31.40;;;;;;5082827;28;20372;-81
2021/06/08 12:08:21;;;;;;;;;;;41.90;31.70;;;;;;5071792;28;19909;-81
2021/06/08 12:10:48;;;;;;;;;;;43.10;31.50;;;;;;5073065;28;19958;-82
2021/06/08 12:13:14;;;;;;;;;;;42.70;31.20;;;;;;5087135;28;19908;-82
2021/06/08 12:15:41;;;;;;;;;;;42.60;31.40;;;;;;5071639;28;19916;-82
2021/06/08 12:18:08;;;;;;;;;;;42.90;31.30;;;;;;5071537;28;20396;-82
2021/06/08 12:20:35;;;;;;;;;;;43.30;31.10;;;;;;5065242;28;19915;-82
2021/06/08 12:23:00;;;;;;;;;;;43.70;29.40;;;;;;5053018;28;19995;-82
2021/06/08 12:25:26;;;;;;;;;;;43.90;29.60;;;;;;5068464;28;20403;-80
2021/06/08 12:27:52;;;;;;;;;;;43.90;29.30;;;;;;5082619;28;19916;-80
2021/06/08 12:30:44;;;;;;;;;;;43.10;29.80;;;;;;5065467;28;20307;-81
2021/06/08 12:33:09;;;;;;;;;;;42.50;30.10;;;;;;5057684;28;19944;-81
2021/06/08 12:35:39;;;;;;;;;;;43.20;30.00;;;;;;5078738;28;19908;-80
2021/06/08 12:38:07;;;;;;;;;;;43.50;30.00;;;;;;5065426;28;19958;-81
2021/06/08 12:40:33;;;;;;;;;;;43.80;30.00;;;;;;5063894;28;19909;-82
2021/06/08 12:43:02;;;;;;;;;;;43.90;29.50;;;;;;5065407;28;19958;-81
2021/06/08 12:45:28;;;;;;;;;;;43.90;29.80;;;;;;5082706;28;19966;-81
2021/06/08 12:47:53;;;;;;;;;;;43.90;29.40;;;;;;5082820;28;19909;-82
2021/06/08 12:50:27;;;;;;;;;;;43.50;29.70;;;;;;5081558;28;19958;-83
2021/06/08 12:52:57;;;;;;;;;;;43.50;29.70;;;;;;5067479;28;19909;-80
2021/06/08 12:55:26;;;;;;;;;;;43.70;29.50;;;;;;5064535;28;19913;-81
2021/06/08 12:57:54;;;;;;;;;;;43.70;29.00;;;;;;5070226;28;19920;-81
2021/06/08 13:00:20;;;;;;;;;;;43.70;29.20;;;;;;5091511;28;19947;-81
2021/06/08 13:02:47;;;;;;;;;;;42.80;29.40;;;;;;5070141;28;19923;-81
2021/06/08 13:05:13;;;;;;;;;;;41.40;29.90;;;;;;5082989;28;19913;-82
2021/06/08 13:07:41;;;;;;;;;;;40.80;30.90;;;;;;5091179;28;19951;-82
2021/06/08 13:10:08;;;;;;;;;;;40.70;31.40;;;;;;5075679;28;20055;-82
2021/06/08 13:12:40;;;;;;;;;;;41.20;30.20;;;;;;5091583;28;19912;-82
2021/06/08 13:15:07;;;;;;;;;;;42.00;30.40;;;;;;5075572;28;19966;-82
2021/06/08 13:17:32;;;;;;;;;;;42.50;30.50;;;;;;5060043;28;19908;-82
2021/06/08 13:19:59;;;;;;;;;;;42.80;30.00;;;;;;5054589;28;19915;-81
2021/06/08 13:22:30;;;;;;;;;;;42.90;29.60;;;;;;5054678;28;19908;-81
2021/06/08 13:24:56;;;;;;;;;;;42.20;29.90;;;;;;5054639;28;19909;-81
2021/06/08 13:27:25;;;;;;;;;;;41.20;30.50;;;;;;5054726;28;20312;-81
2021/06/08 13:29:51;;;;;;;;;;;40.90;30.90;;;;;;5061177;28;19917;-82
2021/06/08 13:32:21;;;;;;;;;;;40.80;30.80;;;;;;5054574;28;19970;-82
2021/06/08 13:35:03;;;;;;;;;;;41.10;30.70;;;;;;5055532;28;19921;-82
2021/06/08 13:37:28;;;;;;;;;;;41.30;30.30;;;;;;5078516;28;19919;-81
2021/06/08 13:39:54;;;;;;;;;;;41.40;30.10;;;;;;5046398;28;19916;-81
2021/06/08 13:42:20;;;;;;;;;;;40.40;30.40;;;;;;5055530;28;20284;-83
2021/06/08 13:45:03;;;;;;;;;;;39.50;31.50;;;;;;5070022;28;19913;-85
2021/06/08 13:47:30;;;;;;;;;;;38.50;32.50;;;;;;5054286;28;19909;-83
2021/06/08 13:49:55;;;;;;;;;;;37.70;33.70;;;;;;5070060;28;19996;-84
2021/06/08 13:52:21;;;;;;;;;;;37.70;33.80;;;;;;5070819;28;20007;-83
2021/06/08 13:54:46;;;;;;;;;;;37.40;34.10;;;;;;5055221;28;19916;-83
2021/06/08 14:02:38;;;;;;;;;;;36.10;35.30;;;;;;5055412;28;20550;-84
2021/06/08 14:05:04;;;;;;;;;;;35.70;35.50;;;;;;5058392;28;19964;-82
2021/06/08 14:07:30;;;;;;;;;;;35.30;35.80;;;;;;5069246;28;20361;-82
2021/06/08 14:09:55;;;;;;;;;;;34.90;36.30;;;;;;5054399;28;20007;-82
2021/06/08 14:12:21;;;;;;;;;;;34.30;36.90;;;;;;5055102;28;19975;-82
2021/06/08 14:14:46;;;;;;;;;;;33.60;37.40;;;;;;5070084;28;19967;-83
2021/06/08 14:17:15;;;;;;;;;;;33.40;38.00;;;;;;5065867;28;19975;-83
2021/06/08 14:19:41;;;;;;;;;;;33.10;38.10;;;;;;5071131;28;19940;-82
2021/06/08 14:22:07;;;;;;;;;;;32.60;38.70;;;;;;5073521;28;19932;-82
2021/06/08 14:24:37;;;;;;;;;;;32.10;39.60;;;;;;5074791;28;19908;-83
2021/06/08 14:27:08;;;;;;;;;;;31.90;40.20;;;;;;5074811;28;19909;-82
2021/06/08 14:29:34;;;;;;;;;;;31.70;40.50;;;;;;5076537;28;19908;-82